Time;durP1;ratioP1;P1;durP2;ratioP2;P2;SDS_P1;SDS_P2;PMS_P1;PMS_P2;Temp;Humidity;BMP_temperature;BMP_pressure;BME280_temperature;BME280_humidity;BME280_pressure;Samples;Min_cycle;Max_cycle;Signal;HPM_P1;HPM_P2
2023/07/02 00:00:11;;;;;;;2.60;1.63;;;;;;;22.06;57.88;100672.19;5018958;28;20037;-50
2023/07/02 00:02:37;;;;;;;2.30;1.88;;;;;;;22.06;58.29;100675.75;5020043;28;20022;-51
2023/07/02 00:05:02;;;;;;;2.95;2.00;;;;;;;22.05;58.33;100665.09;5020185;28;20371;-49
2023/07/02 00:07:28;;;;;;;1.90;1.67;;;;;;;22.05;58.24;100663.22;5016909;28;20021;-49
2023/07/02 00:09:54;;;;;;;2.05;1.50;;;;;;;22.05;58.17;100667.81;5018533;28;20045;-50
2023/07/02 00:12:19;;;;;;;2.60;1.75;;;;;;;22.04;57.78;100663.41;5016793;28;20053;-48
2023/07/02 00:14:45;;;;;;;2.50;2.13;;;;;;;22.05;58.24;100670.53;5017231;28;20538;-48
2023/07/02 00:17:13;;;;;;;2.28;1.85;;;;;;;22.04;57.92;100661.50;5016939;28;20125;-46
2023/07/02 00:19:43;;;;;;;2.65;1.83;;;;;;;22.04;57.61;100663.41;5014471;28;20491;-50
2023/07/02 00:22:09;;;;;;;2.22;1.48;;;;;;;22.04;58.02;100663.41;5018354;28;20408;-48
2023/07/02 00:24:35;;;;;;;2.65;1.60;;;;;;;22.03;57.75;100656.28;5018881;28;20116;-50
2023/07/02 00:27:00;;;;;;;2.13;1.92;;;;;;;22.03;57.49;100648.16;5012169;28;20097;-48
2023/07/02 00:29:25;;;;;;;2.35;1.95;;;;;;;22.03;57.87;100640.03;5016577;28;20058;-50
2023/07/02 00:31:51;;;;;;;2.28;1.80;;;;;;;22.02;57.79;100628.31;5019152;28;20044;-47
2023/07/02 00:34:16;;;;;;;3.45;2.25;;;;;;;22.02;57.95;100635.63;5017522;28;20060;-49
2023/07/02 00:36:41;;;;;;;2.38;1.55;;;;;;;22.03;57.84;100648.16;5020444;28;20506;-50
2023/07/02 00:39:07;;;;;;;5.65;2.10;;;;;;;22.01;58.22;100659.19;5013593;28;20033;-49
2023/07/02 00:41:32;;;;;;;2.00;1.80;;;;;;;22.02;57.96;100657.31;5014975;28;20041;-50
2023/07/02 00:43:58;;;;;;;3.88;2.75;;;;;;;22.01;57.64;100659.19;5016816;28;20045;-47
2023/07/02 00:46:25;;;;;;;2.88;2.15;;;;;;;22.01;58.15;100669.19;5019115;28;20030;-48
2023/07/02 00:48:55;;;;;;;5.07;2.30;;;;;;;22.01;57.48;100671.91;5018211;28;20127;-51
2023/07/02 00:51:25;;;;;;;3.40;2.60;;;;;;;22.00;57.53;100671.03;5016105;28;20050;-50
2023/07/02 00:53:54;;;;;;;5.25;2.70;;;;;;;22.01;57.86;100675.44;5016716;28;20527;-50
2023/07/02 00:56:20;;;;;;;3.00;2.55;;;;;;;22.00;57.40;100679.16;5017803;28;20088;-49
2023/07/02 00:58:48;;;;;;;3.70;2.28;;;;;;;22.00;57.47;100672.91;5017267;28;20399;-47
2023/07/02 01:01:15;;;;;;;3.10;2.05;;;;;;;21.99;57.84;100677.50;5019980;28;20566;-48
2023/07/02 01:03:53;;;;;;;3.47;2.83;;;;;;;21.99;58.00;100676.63;5014425;28;20026;-49
2023/07/02 01:06:20;;;;;;;4.40;2.72;;;;;;;21.99;57.72;100677.50;5019952;28;20078;-48
2023/07/02 01:08:45;;;;;;;2.85;2.03;;;;;;;21.99;57.48;100679.34;5019676;28;20038;-46
2023/07/02 01:11:11;;;;;;;3.95;2.90;;;;;;;22.00;57.73;100686.47;5017740;28;20033;-49
2023/07/02 01:13:37;;;;;;;3.30;2.42;;;;;;;21.98;57.42;100680.38;5018674;28;20032;-48
2023/07/02 01:16:02;;;;;;;3.40;2.95;;;;;;;21.98;57.25;100680.38;5013030;28;20476;-48
2023/07/02 01:18:28;;;;;;;3.60;3.00;;;;;;;21.97;57.23;100689.50;5015481;28;20431;-50
2023/07/02 01:20:54;;;;;;;3.85;2.92;;;;;;;21.97;57.49;100684.97;5021778;28;20057;-49
2023/07/02 01:23:20;;;;;;;3.55;2.80;;;;;;;21.97;57.61;100686.81;5018039;28;20693;-50
2023/07/02 01:25:46;;;;;;;4.63;2.70;;;;;;;21.98;57.24;100688.50;5014983;28;20084;-50
2023/07/02 01:28:13;;;;;;;3.92;3.03;;;;;;;21.97;57.73;100689.50;5017516;28;20442;-47
2023/07/02 01:30:39;;;;;;;4.32;3.15;;;;;;;21.96;57.58;100694.09;5016447;28;20083;-50
2023/07/02 01:33:04;;;;;;;4.78;3.30;;;;;;;21.96;57.30;100690.56;5015333;28;20033;-51
2023/07/02 01:35:29;;;;;;;5.50;3.30;;;;;;;21.96;57.43;100704.09;5014714;28;20122;-50
2023/07/02 01:37:55;;;;;;;4.63;3.30;;;;;;;21.96;57.51;100701.41;5019718;28;20140;-49
2023/07/02 01:40:20;;;;;;;4.40;3.05;;;;;;;21.96;56.95;100709.53;5020368;28;20523;-47
2023/07/02 01:42:45;;;;;;;7.13;4.00;;;;;;;21.95;57.18;100700.56;5020022;28;20471;-46
2023/07/02 01:45:11;;;;;;;3.85;3.08;;;;;;;21.95;57.55;100702.41;5021623;28;20029;-46
2023/07/02 01:47:36;;;;;;;5.10;3.90;;;;;;;21.95;57.13;100702.41;5015631;28;20069;-50
2023/07/02 01:50:04;;;;;;;5.25;4.03;;;;;;;21.94;57.04;100706.16;5021129;28;20476;-51
2023/07/02 01:52:32;;;;;;;6.15;3.97;;;;;;;21.94;57.10;100708.88;5022023;28;20026;-49
2023/07/02 01:54:59;;;;;;;5.45;4.03;;;;;;;21.94;57.00;100711.56;5022568;28;20472;-50
2023/07/02 01:57:24;;;;;;;5.95;4.05;;;;;;;21.92;57.03;100705.50;5020143;28;20041;-49
2023/07/02 01:59:49;;;;;;;7.85;4.63;;;;;;;21.93;56.97;100709.88;5030368;28;20038;-48
2023/07/02 02:02:15;;;;;;;6.43;4.85;;;;;;;21.92;57.09;100711.75;5019233;28;20033;-48
2023/07/02 02:04:40;;;;;;;5.13;4.00;;;;;;;21.93;57.30;100707.16;5019169;28;20042;-49
2023/07/02 02:07:05;;;;;;;6.70;4.65;;;;;;;21.93;56.79;100715.28;5025127;28;20176;-47
2023/07/02 02:09:32;;;;;;;6.30;4.80;;;;;;;21.93;56.83;100709.88;5019358;28;20045;-48
2023/07/02 02:11:57;;;;;;;7.05;4.35;;;;;;;21.92;57.24;100710.91;5018886;28;20030;-48
2023/07/02 02:14:23;;;;;;;7.45;3.92;;;;;;;21.92;56.98;100711.75;5019517;28;20034;-50
2023/07/02 02:16:48;;;;;;;6.47;4.25;;;;;;;21.91;56.89;100712.75;5020960;28;20033;-50
2023/07/02 02:19:14;;;;;;;6.82;4.82;;;;;;;21.91;57.27;100710.03;5020898;28;20036;-47
2023/07/02 02:21:41;;;;;;;7.70;4.68;;;;;;;21.90;56.90;100716.50;5013885;28;20057;-49
2023/07/02 02:24:07;;;;;;;7.45;4.90;;;;;;;21.89;57.10;100709.38;5024266;28;20101;-49
2023/07/02 02:26:33;;;;;;;7.85;4.65;;;;;;;21.90;57.05;100716.50;5023542;28;20121;-49
2023/07/02 02:28:58;;;;;;;7.53;5.07;;;;;;;21.90;56.76;100716.50;5014298;28;20061;-49
2023/07/02 02:31:24;;;;;;;6.30;4.45;;;;;;;21.90;56.98;100718.38;5021337;28;20120;-48
2023/07/02 02:33:49;;;;;;;6.38;4.50;;;;;;;21.90;56.63;100718.38;5021779;28;20033;-47
2023/07/02 02:36:15;;;;;;;7.13;4.90;;;;;;;21.89;57.06;100719.38;5022158;28;20139;-48
2023/07/02 02:38:41;;;;;;;6.85;4.85;;;;;;;21.89;56.62;100722.09;5021737;28;20036;-50
2023/07/02 02:41:08;;;;;;;7.30;5.07;;;;;;;21.89;56.76;100722.09;5019137;28;20034;-50
2023/07/02 02:43:34;;;;;;;7.85;5.38;;;;;;;21.88;56.70;100734.81;5017486;28;20032;-50
2023/07/02 02:45:59;;;;;;;8.93;4.97;;;;;;;21.87;56.49;100730.38;5019961;28;20037;-50
2023/07/02 02:48:25;;;;;;;8.88;5.40;;;;;;;21.88;56.98;100728.53;5018470;28;20025;-48
2023/07/02 02:50:50;;;;;;;6.25;5.00;;;;;;;21.87;56.90;100733.09;5017390;28;20037;-49
2023/07/02 02:53:15;;;;;;;9.10;5.22;;;;;;;21.88;56.36;100731.25;5023798;28;20082;-47
2023/07/02 02:55:41;;;;;;;7.53;5.72;;;;;;;21.86;56.64;100734.97;5016650;28;20045;-50
2023/07/02 02:58:06;;;;;;;8.50;5.28;;;;;;;21.87;56.73;100735.81;5024172;28;20026;-48
2023/07/02 03:00:32;;;;;;;9.07;5.68;;;;;;;21.86;56.32;100737.69;5027992;28;20025;-46
2023/07/02 03:02:58;;;;;;;6.35;5.05;;;;;;;21.86;56.86;100745.81;5018327;28;20042;-47
2023/07/02 03:05:24;;;;;;;9.07;5.80;;;;;;;21.86;56.59;100747.69;5019566;28;20426;-50
2023/07/02 03:07:50;;;;;;;8.75;6.07;;;;;;;21.85;56.19;100746.81;5022204;28;20061;-49
2023/07/02 03:10:16;;;;;;;7.78;5.57;;;;;;;21.85;56.46;100751.41;5020107;28;20036;-51
2023/07/02 03:12:41;;;;;;;8.40;5.53;;;;;;;21.84;56.25;100758.69;5015155;28;20480;-49
2023/07/02 03:15:08;;;;;;;7.95;5.53;;;;;;;21.84;56.71;100761.41;5027220;28;20041;-47
2023/07/02 03:17:33;;;;;;;8.75;6.13;;;;;;;21.84;56.59;100766.84;5017665;28;20080;-49
2023/07/02 03:19:58;;;;;;;8.48;6.15;;;;;;;21.84;56.15;100768.72;5024653;28;20030;-50
2023/07/02 03:22:24;;;;;;;9.80;6.57;;;;;;;21.84;56.63;100760.56;5021676;28;20566;-48
2023/07/02 03:24:49;;;;;;;8.38;5.72;;;;;;;21.84;56.57;100766.84;5020078;28;20041;-50
2023/07/02 03:27:14;;;;;;;7.15;5.50;;;;;;;21.83;56.14;100765.13;5016271;28;20080;-47
2023/07/02 03:29:40;;;;;;;8.75;6.25;;;;;;;21.83;56.05;100770.53;5017954;28;20116;-48
2023/07/02 03:32:06;;;;;;;8.52;5.97;;;;;;;21.82;56.48;100768.88;5021328;28;20431;-48
2023/07/02 03:34:31;;;;;;;9.13;6.05;;;;;;;21.82;56.11;100771.59;5024663;28;20108;-48
2023/07/02 03:36:56;;;;;;;8.98;6.30;;;;;;;21.82;56.13;100774.28;5020170;28;20053;-48
2023/07/02 03:39:22;;;;;;;12.43;6.20;;;;;;;21.82;56.28;100779.72;5020248;28;20030;-47
2023/07/02 03:41:47;;;;;;;8.90;5.80;;;;;;;21.81;56.44;100778.00;5016363;28;20436;-48
2023/07/02 03:44:13;;;;;;;9.93;6.63;;;;;;;21.81;56.28;100780.72;5024964;28;20033;-46
2023/07/02 03:46:38;;;;;;;12.25;6.82;;;;;;;21.81;55.82;100794.28;5021730;28;20041;-46
2023/07/02 03:49:04;;;;;;;8.93;6.63;;;;;;;21.81;56.04;100782.59;5015917;28;20495;-48
2023/07/02 03:51:30;;;;;;;8.50;6.13;;;;;;;21.80;55.79;100789.00;5018950;28;20108;-47
2023/07/02 03:53:55;;;;;;;11.23;6.53;;;;;;;21.80;56.19;100784.47;5015742;28;20053;-47
2023/07/02 03:56:21;;;;;;;10.65;6.68;;;;;;;21.80;56.14;100791.72;5017312;28;20463;-47
2023/07/02 03:58:46;;;;;;;9.18;6.22;;;;;;;21.80;55.92;100789.00;5017655;28;20120;-47
2023/07/02 04:01:12;;;;;;;10.82;6.25;;;;;;;21.80;55.83;100789.88;5014428;28;20100;-47
2023/07/02 04:03:38;;;;;;;11.25;6.25;;;;;;;21.79;56.12;100790.06;5018206;28;20022;-47
2023/07/02 04:06:05;;;;;;;10.13;6.90;;;;;;;21.80;56.04;100789.00;5015833;28;20025;-48
2023/07/02 04:08:31;;;;;;;9.15;6.25;;;;;;;21.78;55.76;100789.22;5012751;28;20025;-50
2023/07/02 04:10:57;;;;;;;9.98;6.75;;;;;;;21.79;56.09;100795.47;5018095;28;20030;-50
2023/07/02 04:13:22;;;;;;;8.32;6.05;;;;;;;21.79;55.92;100795.47;5021285;28;20053;-50
2023/07/02 04:15:47;;;;;;;11.02;6.78;;;;;;;21.78;55.63;100794.63;5015731;28;20114;-50
2023/07/02 04:18:13;;;;;;;10.13;6.60;;;;;;;21.79;55.77;100800.91;5018819;28;20028;-49
2023/07/02 04:20:38;;;;;;;10.00;6.68;;;;;;;21.79;56.04;100806.31;5015885;28;20496;-48
2023/07/02 04:23:05;;;;;;;8.35;5.88;;;;;;;21.78;55.87;100799.19;5017563;28;20076;-50
2023/07/02 04:25:30;;;;;;;10.07;6.55;;;;;;;21.78;55.79;100802.78;5014574;28;20022;-47
2023/07/02 04:27:58;;;;;;;8.73;6.13;;;;;;;21.78;55.76;100808.19;5011559;28;20030;-47
2023/07/02 04:30:24;;;;;;;9.07;6.45;;;;;;;21.78;55.61;100810.03;5014847;28;20065;-48
2023/07/02 04:32:50;;;;;;;10.43;7.28;;;;;;;21.77;55.79;100803.78;5017833;28;20467;-50
2023/07/02 04:35:15;;;;;;;10.45;6.45;;;;;;;21.77;55.31;100814.63;5014652;28;20021;-47
2023/07/02 04:37:40;;;;;;;8.90;6.15;;;;;;;21.77;55.62;100808.34;5019676;28;20088;-51
2023/07/02 04:40:09;;;;;;;10.10;6.40;;;;;;;21.77;55.22;100820.03;5012596;28;20353;-50
2023/07/02 04:42:37;;;;;;;8.65;6.05;;;;;;;21.77;55.56;100814.63;5023603;28;20025;-51
2023/07/02 04:45:08;;;;;;;9.30;6.47;;;;;;;21.75;55.23;100813.94;5019219;28;20030;-50
2023/07/02 04:47:34;;;;;;;9.68;6.20;;;;;;;21.76;55.51;100818.34;5013608;28;20037;-47
2023/07/02 04:49:59;;;;;;;9.18;5.82;;;;;;;21.77;55.16;100821.91;5018777;28;20033;-50
2023/07/02 04:52:25;;;;;;;10.10;6.70;;;;;;;21.77;55.25;100824.63;5020207;28;20052;-52
2023/07/02 04:54:50;;;;;;;9.63;6.25;;;;;;;21.75;55.53;100824.78;5014183;28;20430;-49
2023/07/02 04:57:16;;;;;;;9.57;6.15;;;;;;;21.76;55.64;100823.78;5015255;28;20064;-47
2023/07/02 04:59:42;;;;;;;8.93;5.97;;;;;;;21.75;55.14;100830.19;5023142;28;20037;-48
2023/07/02 05:02:07;;;;;;;10.13;6.40;;;;;;;21.75;55.36;100826.66;5014682;28;20420;-50
2023/07/02 05:04:32;;;;;;;9.75;6.55;;;;;;;21.73;55.54;100826.81;5015923;28;20025;-47
2023/07/02 05:06:59;;;;;;;9.98;6.78;;;;;;;21.73;55.61;100829.53;5015678;28;20030;-48
2023/07/02 05:09:25;;;;;;;8.27;6.10;;;;;;;21.74;55.10;100833.94;5013332;28;20057;-51
2023/07/02 05:11:50;;;;;;;9.90;6.22;;;;;;;21.74;55.16;100833.94;5018463;28;20029;-48
2023/07/02 05:14:15;;;;;;;8.45;6.20;;;;;;;21.74;55.43;100835.78;5021949;28;20033;-51
2023/07/02 05:16:41;;;;;;;8.68;6.10;;;;;;;21.73;55.11;100840.38;5021204;28;20034;-48
2023/07/02 05:19:06;;;;;;;8.50;5.65;;;;;;;21.73;55.15;100845.78;5022525;28;20129;-47
2023/07/02 05:21:31;;;;;;;8.20;6.05;;;;;;;21.72;55.38;100844.09;5020527;28;20096;-49
2023/07/02 05:23:57;;;;;;;9.70;6.32;;;;;;;21.73;55.23;100848.50;5024097;28;20038;-50
2023/07/02 05:26:22;;;;;;;9.10;6.28;;;;;;;21.73;55.00;100847.66;5017571;28;20056;-51
2023/07/02 05:28:48;;;;;;;7.95;5.80;;;;;;;21.73;54.96;100859.34;5019886;28;20061;-50
2023/07/02 05:31:13;;;;;;;8.93;5.57;;;;;;;21.72;55.45;100859.50;5023822;28;20506;-48
2023/07/02 05:33:39;;;;;;;12.52;6.68;;;;;;;21.72;55.40;100860.34;5018653;28;20033;-49
2023/07/02 05:36:04;;;;;;;9.20;6.13;;;;;;;21.72;54.95;100859.50;5021730;28;20437;-50
2023/07/02 05:38:30;;;;;;;9.55;6.35;;;;;;;21.72;55.40;100865.75;5017441;28;20045;-47
2023/07/02 05:40:55;;;;;;;8.48;5.68;;;;;;;21.73;55.09;100872.06;5019774;28;20116;-52
2023/07/02 05:43:20;;;;;;;9.57;6.30;;;;;;;21.72;54.94;100867.63;5019614;28;20033;-48
2023/07/02 05:45:46;;;;;;;10.35;6.28;;;;;;;21.72;55.26;100873.06;5020635;28;20030;-49
2023/07/02 05:48:11;;;;;;;9.07;6.20;;;;;;;21.71;54.87;100872.22;5019492;28;20046;-51
2023/07/02 05:50:37;;;;;;;8.93;5.82;;;;;;;21.70;55.27;100873.22;5026999;28;20057;-50
2023/07/02 05:53:02;;;;;;;9.95;6.43;;;;;;;21.72;55.28;100881.19;5016926;28;20026;-47
2023/07/02 05:55:27;;;;;;;10.25;6.50;;;;;;;21.74;55.10;100879.16;5012696;28;20087;-50
2023/07/02 05:57:53;;;;;;;9.45;6.20;;;;;;;21.74;55.10;100874.59;5019675;28;20037;-51
2023/07/02 06:00:18;;;;;;;9.48;6.35;;;;;;;21.74;54.99;100873.72;5017416;28;20049;-50
2023/07/02 06:02:46;;;;;;;9.80;6.00;;;;;;;21.73;55.10;100863.91;5015312;28;20026;-49
2023/07/02 06:05:12;;;;;;;11.48;6.47;;;;;;;21.73;54.70;100872.06;5016377;28;20057;-51
2023/07/02 06:07:37;;;;;;;8.88;5.70;;;;;;;21.72;55.22;100879.31;5018089;28;20072;-48
2023/07/02 06:10:03;;;;;;;11.13;5.90;;;;;;;21.72;55.24;100894.72;5022264;28;20057;-48
2023/07/02 06:12:28;;;;;;;8.77;5.32;;;;;;;21.71;54.80;100872.22;5014209;28;20113;-51
2023/07/02 06:14:53;;;;;;;9.30;5.93;;;;;;;21.71;55.21;100896.59;5013225;28;20034;-48
2023/07/02 06:17:20;;;;;;;11.13;5.88;;;;;;;21.72;54.86;100903.72;5021532;28;20112;-51
2023/07/02 06:19:46;;;;;;;10.05;5.93;;;;;;;21.71;55.20;100907.44;5021373;28;20376;-50
2023/07/02 06:22:12;;;;;;;9.10;5.70;;;;;;;21.71;54.58;100895.78;5015830;28;20455;-49
2023/07/02 06:24:37;;;;;;;8.95;6.15;;;;;;;21.71;54.57;100902.03;5020897;28;20029;-47
2023/07/02 06:27:03;;;;;;;9.18;5.88;;;;;;;21.71;54.87;100910.16;5022063;28;20033;-48
2023/07/02 06:29:28;;;;;;;9.82;5.95;;;;;;;21.70;54.78;100907.63;5021788;28;20057;-51
2023/07/02 06:31:54;;;;;;;7.75;5.28;;;;;;;21.70;54.77;100913.03;5016462;28;20041;-51
2023/07/02 06:34:19;;;;;;;9.65;5.47;;;;;;;21.71;55.06;100912.03;5018201;28;20595;-50
2023/07/02 06:36:45;;;;;;;9.25;5.80;;;;;;;21.71;55.15;100917.44;5017205;28;20030;-51
2023/07/02 06:39:10;;;;;;;9.07;5.95;;;;;;;21.70;54.57;100913.03;5013821;28;20096;-48
2023/07/02 06:41:36;;;;;;;10.30;5.97;;;;;;;21.70;54.75;100913.88;5013671;28;20037;-49
2023/07/02 06:44:02;;;;;;;6.55;4.97;;;;;;;21.68;54.98;100905.06;5021375;28;20498;-49
2023/07/02 06:46:28;;;;;;;10.95;5.65;;;;;;;21.69;54.66;100914.91;5021241;28;20025;-49
2023/07/02 06:48:54;;;;;;;8.43;5.50;;;;;;;21.69;54.88;100914.91;5011749;28;20404;-48
2023/07/02 06:51:21;;;;;;;9.43;6.07;;;;;;;21.69;54.93;100920.31;5017153;28;20081;-46
2023/07/02 06:53:47;;;;;;;8.68;5.65;;;;;;;21.70;54.88;100924.72;5020024;28;20176;-50
2023/07/02 06:56:12;;;;;;;7.78;5.70;;;;;;;21.72;54.76;100925.38;5017090;28;20037;-51
2023/07/02 06:58:39;;;;;;;16.45;6.95;;;;;;;21.71;52.26;100931.00;5026069;28;20048;-52
2023/07/02 07:01:05;;;;;;;14.85;6.63;;;;;;;21.67;51.32;100927.78;5015442;28;20448;-52
2023/07/02 07:03:30;;;;;;;18.23;6.72;;;;;;;21.62;50.89;100936.41;5015852;28;20054;-49
2023/07/02 07:05:56;;;;;;;17.00;7.32;;;;;;;21.59;51.07;100938.59;5019006;28;20037;-49
2023/07/02 07:08:21;;;;;;;14.73;6.85;;;;;;;21.57;50.21;100940.63;5013564;28;20041;-51
2023/07/02 07:10:46;;;;;;;18.08;6.80;;;;;;;21.55;50.40;100950.78;5016772;28;20496;-49
2023/07/02 07:13:12;;;;;;;15.55;6.00;;;;;;;21.52;50.25;100948.44;5021473;28;20040;-51
2023/07/02 07:15:38;;;;;;;15.23;6.28;;;;;;;21.50;49.66;100942.34;5011655;28;20042;-49
2023/07/02 07:18:03;;;;;;;13.82;6.10;;;;;;;21.47;49.65;100955.16;5015695;28;20029;-51
2023/07/02 07:20:30;;;;;;;14.10;5.45;;;;;;;21.45;49.72;100948.22;5019664;28;20045;-49
2023/07/02 07:22:56;;;;;;;16.38;7.22;;;;;;;21.44;49.62;100949.25;5016241;28;20555;-48
2023/07/02 07:25:21;;;;;;;16.38;6.32;;;;;;;21.42;49.63;100954.81;5013940;28;20124;-52
2023/07/02 07:27:47;;;;;;;13.63;6.25;;;;;;;21.41;49.54;100955.81;5012139;28;20478;-48
2023/07/02 07:30:14;;;;;;;13.65;6.10;;;;;;;21.41;49.19;100965.81;5014363;28;20476;-51
2023/07/02 07:32:40;;;;;;;11.55;6.13;;;;;;;21.38;49.62;100969.69;5020513;28;20120;-49
2023/07/02 07:35:06;;;;;;;13.38;6.30;;;;;;;21.40;49.38;100967.66;5013867;28;20029;-49
2023/07/02 07:37:31;;;;;;;17.02;6.22;;;;;;;21.39;49.36;100979.50;5015544;28;20156;-52
2023/07/02 07:39:56;;;;;;;14.10;6.35;;;;;;;21.38;49.42;100972.41;5016191;28;20149;-49
2023/07/02 07:42:22;;;;;;;15.35;6.10;;;;;;;21.38;50.00;100991.38;5014748;28;20029;-51
2023/07/02 07:44:47;;;;;;;13.75;5.97;;;;;;;21.39;49.63;100984.94;5017815;28;20040;-50
2023/07/02 07:47:13;;;;;;;13.90;6.70;;;;;;;21.42;50.23;100983.75;5011064;28;20357;-52
2023/07/02 07:49:38;;;;;;;12.10;5.90;;;;;;;21.42;49.90;100987.31;5020971;28;20029;-52
2023/07/02 07:52:06;;;;;;;15.50;6.10;;;;;;;21.44;50.45;100988.03;5014872;28;20041;-51
2023/07/02 07:54:32;;;;;;;11.55;5.35;;;;;;;21.45;50.22;100989.72;5021864;28;20045;-52
2023/07/02 07:56:57;;;;;;;13.20;5.80;;;;;;;21.47;50.80;100982.25;5019704;28;20507;-50
2023/07/02 07:59:22;;;;;;;15.15;6.10;;;;;;;21.48;50.81;100991.25;5025350;28;20040;-47
2023/07/02 08:01:48;;;;;;;14.10;5.43;;;;;;;21.50;50.71;100994.66;5020227;28;20431;-50
2023/07/02 08:04:13;;;;;;;9.98;5.00;;;;;;;21.51;50.60;100990.06;5017722;28;20084;-52
2023/07/02 08:06:38;;;;;;;12.85;6.55;;;;;;;21.51;51.05;100982.78;5016364;28;20025;-48
2023/07/02 08:09:04;;;;;;;11.50;5.57;;;;;;;21.52;50.84;100995.31;5014320;28;20400;-46
2023/07/02 08:11:29;;;;;;;13.80;5.97;;;;;;;21.53;50.92;101001.56;5017888;28;20064;-45
2023/07/02 08:13:55;;;;;;;13.38;5.45;;;;;;;21.54;51.32;100998.72;5016942;28;20396;-49
2023/07/02 08:16:20;;;;;;;13.25;5.68;;;;;;;21.54;51.46;101003.28;5013585;28;20022;-49
2023/07/02 08:18:46;;;;;;;10.57;5.18;;;;;;;21.55;51.02;100999.56;5012577;28;20032;-49
2023/07/02 08:21:11;;;;;;;11.65;5.78;;;;;;;21.56;51.70;101001.25;5017920;28;20058;-48
2023/07/02 08:23:37;;;;;;;8.02;5.15;;;;;;;21.56;51.49;101009.38;5020545;28;20068;-49
2023/07/02 08:26:03;;;;;;;9.77;5.03;;;;;;;21.56;51.83;101012.09;5014633;28;20045;-47
2023/07/02 08:28:28;;;;;;;12.75;5.18;;;;;;;21.58;51.51;101015.50;5010524;28;20469;-47
2023/07/02 08:30:54;;;;;;;10.80;5.13;;;;;;;21.57;51.45;101011.06;5010726;28;20539;-49
2023/07/02 08:33:20;;;;;;;7.70;5.18;;;;;;;21.57;51.67;101011.06;5020005;28;20030;-50
2023/07/02 08:35:45;;;;;;;12.35;5.07;;;;;;;21.58;51.54;101015.50;5019805;28;20186;-49
2023/07/02 08:38:11;;;;;;;12.50;5.20;;;;;;;21.58;51.56;101018.19;5027393;28;20100;-49
2023/07/02 08:40:36;;;;;;;8.18;4.78;;;;;;;21.57;52.04;101022.78;5017348;28;20026;-50
2023/07/02 08:43:01;;;;;;;9.35;5.03;;;;;;;21.59;51.79;101022.59;5012654;28;20033;-48
2023/07/02 08:45:27;;;;;;;9.95;5.28;;;;;;;21.58;51.86;101021.75;5017722;28;20091;-49
2023/07/02 08:47:57;;;;;;;9.68;4.93;;;;;;;21.58;51.94;101029.03;5012714;28;20041;-49
2023/07/02 08:50:23;;;;;;;10.73;5.10;;;;;;;21.58;51.79;101031.75;5021891;28;20415;-49
2023/07/02 08:52:49;;;;;;;10.98;5.00;;;;;;;21.58;52.23;101021.75;5022391;28;20030;-48
2023/07/02 08:55:14;;;;;;;8.10;4.75;;;;;;;21.58;52.37;101027.16;5016196;28;20237;-49
2023/07/02 08:57:49;;;;;;;7.35;4.55;;;;;;;21.59;52.05;101036.13;5019617;28;20049;-48
2023/07/02 09:00:14;;;;;;;8.35;4.75;;;;;;;21.60;52.23;101024.28;5026470;28;20032;-47
2023/07/02 09:02:40;;;;;;;9.73;4.85;;;;;;;21.59;52.32;101028.00;5022050;28;20468;-49
2023/07/02 09:05:06;;;;;;;7.22;4.47;;;;;;;21.58;52.12;101021.75;5023082;28;20511;-51
2023/07/02 09:07:31;;;;;;;7.88;4.03;;;;;;;21.59;52.08;101019.88;5022132;28;20403;-47
2023/07/02 09:09:56;;;;;;;8.23;4.85;;;;;;;21.59;52.22;101025.28;5021750;28;20033;-47
2023/07/02 09:12:27;;;;;;;9.65;4.55;;;;;;;21.60;52.39;101022.44;5015497;28;20369;-50
2023/07/02 09:14:57;;;;;;;8.05;4.75;;;;;;;21.63;52.28;101029.41;5015467;28;20464;-46
2023/07/02 09:17:28;;;;;;;8.02;4.95;;;;;;;21.61;52.38;101025.97;5020271;28;20079;-46
2023/07/02 09:19:53;;;;;;;9.68;4.60;;;;;;;21.62;52.25;101024.97;5016481;28;20493;-50
2023/07/02 09:22:19;;;;;;;8.50;4.90;;;;;;;21.62;52.68;101033.09;5016770;28;20137;-50
2023/07/02 09:24:54;;;;;;;8.57;4.57;;;;;;;21.61;52.79;101034.09;5017993;28;20037;-47
2023/07/02 09:27:20;;;;;;;7.38;4.20;;;;;;;21.62;52.60;101031.22;5025844;28;20383;-49
2023/07/02 09:29:52;;;;;;;12.13;4.93;;;;;;;21.66;53.07;101031.75;5021238;28;20029;-50
2023/07/02 09:32:25;;;;;;;23.33;8.93;;;;;;;21.71;52.71;101023.97;5021850;28;20029;-51
2023/07/02 09:34:53;;;;;;;292.65;111.68;;;;;;;21.76;53.29;101024.34;5022245;28;20021;-48
2023/07/02 09:37:19;;;;;;;54.53;21.45;;;;;;;21.81;53.45;101035.50;5020369;28;20029;-53
2023/07/02 09:39:48;;;;;;;91.47;30.63;;;;;;;21.85;53.49;101020.59;5025734;28;20566;-55
2023/07/02 09:42:14;;;;;;;51.72;17.63;;;;;;;21.88;52.99;101013.16;5023295;28;20026;-48
2023/07/02 09:44:42;;;;;;;42.33;17.13;;;;;;;21.88;53.35;101011.31;5026658;28;20121;-49
2023/07/02 09:47:09;;;;;;;42.58;16.02;;;;;;;21.86;52.93;101013.34;5020559;28;20045;-48
2023/07/02 09:49:39;;;;;;;41.67;14.93;;;;;;;21.84;53.40;101008.06;5019716;28;20038;-49
2023/07/02 09:52:07;;;;;;;32.40;14.37;;;;;;;21.85;53.38;101019.75;5018903;28;20515;-49
2023/07/02 09:54:33;;;;;;;29.60;12.95;;;;;;;21.83;52.79;101019.91;5025010;28;20037;-47
2023/07/02 09:56:59;;;;;;;33.47;13.45;;;;;;;21.82;53.42;101022.81;5022353;28;20087;-46
2023/07/02 09:59:25;;;;;;;25.02;10.75;;;;;;;21.81;53.16;101024.66;5027370;28;20029;-47
2023/07/02 10:01:51;;;;;;;26.88;11.13;;;;;;;21.80;53.00;101031.13;5020484;28;20075;-49
2023/07/02 10:04:19;;;;;;;20.10;9.93;;;;;;;21.78;52.89;101035.84;5019971;28;20429;-49
2023/07/02 10:06:50;;;;;;;27.30;9.95;;;;;;;21.78;53.08;101038.56;5019598;28;20053;-46
2023/07/02 10:09:16;;;;;;;26.70;10.30;;;;;;;21.78;52.88;101049.41;5023446;28;20030;-49
2023/07/02 10:11:42;;;;;;;19.92;8.60;;;;;;;21.75;53.05;101046.19;5018005;28;20076;-46
2023/07/02 10:14:08;;;;;;;20.73;8.80;;;;;;;21.75;53.25;101048.88;5021172;28;20058;-47
2023/07/02 10:16:33;;;;;;;21.67;9.55;;;;;;;21.74;53.19;101052.59;5019306;28;20084;-49
2023/07/02 10:19:28;;;;;;;21.30;8.02;;;;;;;21.78;52.87;101048.53;5020121;28;20029;-49
2023/07/02 10:22:04;;;;;;;17.73;8.55;;;;;;;21.73;53.17;101057.19;5020170;28;20124;-49
2023/07/02 10:24:30;;;;;;;15.30;7.60;;;;;;;21.71;52.97;101061.91;5019322;28;20054;-47
2023/07/02 10:27:05;;;;;;;17.73;7.95;;;;;;;21.70;53.46;101051.25;5019246;28;20507;-48
2023/07/02 10:29:30;;;;;;;18.88;7.32;;;;;;;21.70;53.06;101062.91;5017797;28;20476;-46
2023/07/02 10:31:57;;;;;;;19.55;9.02;;;;;;;21.69;53.40;101060.41;5022355;28;20060;-46
2023/07/02 10:34:33;;;;;;;19.88;8.23;;;;;;;21.70;53.45;101057.50;5016806;28;20395;-48
2023/07/02 10:37:03;;;;;;;15.98;6.78;;;;;;;21.69;53.30;101066.66;5020927;28;20044;-48
2023/07/02 10:39:30;;;;;;;16.65;7.22;;;;;;;21.67;53.34;101063.28;5018714;28;20029;-46
2023/07/02 10:42:15;;;;;;;11.07;6.40;;;;;;;21.69;53.56;101063.94;5021443;28;20041;-47
2023/07/02 10:44:51;;;;;;;16.17;6.72;;;;;;;21.69;52.97;101054.97;5026574;28;20041;-46
2023/07/02 10:47:17;;;;;;;13.52;6.38;;;;;;;21.69;52.95;101069.38;5020702;28;20079;-48
2023/07/02 10:49:42;;;;;;;13.80;5.93;;;;;;;21.69;52.68;101063.13;5014557;28;20053;-45
2023/07/02 10:52:08;;;;;;;11.80;5.35;;;;;;;21.68;53.02;101051.41;5016649;28;20084;-47
2023/07/02 10:54:40;;;;;;;13.40;6.57;;;;;;;21.68;52.84;101064.94;5013914;28;20026;-48
2023/07/02 10:57:06;;;;;;;12.45;6.40;;;;;;;21.66;52.39;101062.41;5022105;28;20472;-49
2023/07/02 10:59:32;;;;;;;13.32;6.10;;;;;;;21.66;52.55;101069.69;5023674;28;20208;-45
2023/07/02 11:02:01;;;;;;;15.65;6.32;;;;;;;21.66;51.90;101069.69;5015735;28;20169;-48
2023/07/02 11:04:27;;;;;;;13.65;6.20;;;;;;;21.64;50.85;101069.84;5015270;28;20044;-46
2023/07/02 11:06:53;;;;;;;15.25;6.18;;;;;;;21.63;50.37;101072.75;5018137;28;20033;-47
2023/07/02 11:09:20;;;;;;;17.52;6.38;;;;;;;21.61;50.54;101069.31;5021710;28;20041;-49
2023/07/02 11:11:52;;;;;;;14.43;6.70;;;;;;;21.59;50.41;101066.81;5017377;28;20387;-46
2023/07/02 11:14:27;;;;;;;18.58;6.55;;;;;;;21.61;51.04;101072.03;5022225;28;20036;-48
2023/07/02 11:16:56;;;;;;;15.05;6.63;;;;;;;21.59;50.61;101072.22;5022995;28;20029;-47